createdAt,value
2019-03-31T00:00:01.467Z,12.77
2019-03-31T00:02:51.794Z,11.10
2019-03-31T00:05:37.306Z,11.43
2019-03-31T00:08:26.706Z,11.00
2019-03-31T00:11:16.985Z,12.10
2019-03-31T00:14:00.203Z,11.77
2019-03-31T00:16:52.435Z,11.77
2019-03-31T00:19:35.602Z,11.13
2019-03-31T00:22:26.795Z,12.07
2019-03-31T00:25:17.281Z,13.47
2019-03-31T00:28:07.739Z,11.23
2019-03-31T00:30:57.992Z,13.07
2019-03-31T00:33:48.260Z,10.67
2019-03-31T00:36:30.629Z,13.57
2019-03-31T00:39:20.877Z,11.67
2019-03-31T00:42:03.643Z,12.37
2019-03-31T00:44:53.989Z,11.20
2019-03-31T00:47:36.237Z,11.17
2019-03-31T00:50:45.395Z,13.77
2019-03-31T00:53:35.720Z,11.17
2019-03-31T00:56:26.366Z,10.87
2019-03-31T00:59:16.756Z,14.50
2019-03-31T01:04:54.587Z,10.87
2019-03-31T01:07:44.855Z,9.83
2019-03-31T01:10:28.907Z,11.10
2019-03-31T01:16:20.947Z,10.93
2019-03-31T01:22:26.073Z,11.37
2019-03-31T01:28:13.197Z,11.30
2019-03-31T01:34:06.569Z,11.20
2019-03-31T01:36:56.837Z,11.97
2019-03-31T01:39:39.231Z,11.67
2019-03-31T01:42:29.532Z,11.17
2019-03-31T01:45:11.971Z,11.93
2019-03-31T01:48:02.267Z,13.77
2019-03-31T01:50:45.131Z,11.03
2019-03-31T01:53:35.438Z,10.97
2019-03-31T01:59:26.219Z,13.50
2019-03-31T02:02:11.527Z,11.90
2019-03-31T02:05:01.907Z,10.97
2019-03-31T02:07:52.187Z,10.13
2019-03-31T02:10:42.543Z,12.07
2019-03-31T02:16:46.965Z,10.87
2019-03-31T02:19:37.225Z,11.70
2019-03-31T02:22:27.473Z,10.10
2019-03-31T02:28:31.038Z,10.87
2019-03-31T02:31:40.262Z,12.27
2019-03-31T02:34:30.648Z,10.37
2019-03-31T02:37:13.413Z,11.77
2019-03-31T02:40:03.762Z,12.97
2019-03-31T02:42:54.086Z,10.63
2019-03-31T02:46:03.176Z,12.50
2019-03-31T02:48:53.503Z,12.00
2019-03-31T02:51:43.824Z,12.33
2019-03-31T02:54:36.663Z,12.57
2019-03-31T02:57:27.047Z,10.80
2019-03-31T03:00:17.340Z,12.70
2019-03-31T03:06:21.784Z,9.97
2019-03-31T03:09:12.118Z,12.73
2019-03-31T03:12:13.549Z,14.13
2019-03-31T03:14:57.073Z,12.97
2019-03-31T03:17:47.320Z,13.37
2019-03-31T03:20:30.150Z,10.93
2019-03-31T03:23:20.413Z,11.93
2019-03-31T03:26:03.141Z,11.67
2019-03-31T03:28:53.415Z,11.03
2019-03-31T03:31:39.877Z,10.87
2019-03-31T03:34:30.191Z,13.33
2019-03-31T03:37:12.570Z,13.30
2019-03-31T03:40:02.847Z,13.53
2019-03-31T03:42:45.166Z,13.57
2019-03-31T03:45:35.502Z,11.03
2019-03-31T03:48:18.468Z,12.80
2019-03-31T03:51:08.745Z,13.77
2019-03-31T03:53:51.238Z,13.27
2019-03-31T03:56:41.462Z,12.90
2019-03-31T03:59:23.910Z,11.77
2019-03-31T04:02:14.177Z,12.27
2019-03-31T04:04:57.288Z,14.80
2019-03-31T04:07:47.543Z,11.77
2019-03-31T04:10:49.102Z,13.43
2019-03-31T04:13:38.912Z,11.87
2019-03-31T04:16:21.078Z,11.53
2019-03-31T04:19:04.193Z,11.87
2019-03-31T04:21:50.843Z,13.43
2019-03-31T04:24:34.203Z,10.57
2019-03-31T04:27:24.493Z,12.10
2019-03-31T04:30:14.841Z,13.47
2019-03-31T04:33:05.155Z,11.83
2019-03-31T04:35:55.451Z,11.03
2019-03-31T04:38:45.790Z,11.10
2019-03-31T04:42:07.019Z,11.87
2019-03-31T04:44:51.157Z,11.53
2019-03-31T04:47:41.432Z,12.23
2019-03-31T04:50:31.680Z,13.17
2019-03-31T04:53:22.006Z,11.23
2019-03-31T04:56:04.699Z,13.73
2019-03-31T04:58:54.973Z,12.87
2019-03-31T05:01:37.590Z,12.70
2019-03-31T05:04:27.832Z,13.47
2019-03-31T05:07:11.020Z,13.17
2019-03-31T05:10:01.284Z,12.83
2019-03-31T05:12:44.727Z,11.33
2019-03-31T05:15:34.971Z,10.80
2019-03-31T05:18:17.817Z,11.87
2019-03-31T05:21:08.059Z,12.27
2019-03-31T05:23:54.463Z,18.03
2019-03-31T05:26:44.760Z,13.87
2019-03-31T05:29:27.269Z,13.90
2019-03-31T05:32:17.549Z,14.77
2019-03-31T05:35:00.513Z,15.93
2019-03-31T05:37:51.586Z,12.50
2019-03-31T05:40:35.050Z,12.07
2019-03-31T05:43:25.379Z,13.17
2019-03-31T05:46:08.346Z,14.47
2019-03-31T05:48:58.654Z,11.97
2019-03-31T05:51:49.073Z,14.37
2019-03-31T05:54:39.415Z,14.27
2019-03-31T05:57:30.551Z,12.83
2019-03-31T06:04:10.772Z,13.40
2019-03-31T06:06:53.538Z,14.43
2019-03-31T06:09:43.888Z,12.83
2019-03-31T06:12:34.188Z,14.37
2019-03-31T06:15:24.456Z,12.67
2019-03-31T06:18:07.176Z,12.77
2019-03-31T06:20:57.504Z,13.57
2019-03-31T06:23:47.957Z,12.60
2019-03-31T06:29:32.315Z,12.87
2019-03-31T06:32:22.708Z,12.73
2019-03-31T06:35:13.001Z,12.47
2019-03-31T06:38:03.322Z,10.67
2019-03-31T06:43:50.654Z,11.33
2019-03-31T06:46:40.938Z,11.43
2019-03-31T06:49:23.872Z,13.17
2019-03-31T06:52:14.132Z,10.83
2019-03-31T06:54:57.102Z,11.17
2019-03-31T06:57:47.390Z,11.20
2019-03-31T07:00:38.222Z,12.55
2019-03-31T07:03:21.874Z,10.28
2019-03-31T07:06:12.703Z,11.88
2019-03-31T07:08:55.996Z,11.15
2019-03-31T07:12:05.724Z,11.63
2019-03-31T07:14:49.294Z,11.65
2019-03-31T07:17:39.588Z,11.30
2019-03-31T07:20:22.271Z,10.77
2019-03-31T07:26:13.902Z,14.50
2019-03-31T07:29:04.186Z,13.97
2019-03-31T07:31:46.536Z,10.60
2019-03-31T07:34:36.822Z,15.37
2019-03-31T07:37:19.416Z,13.07
2019-03-31T07:40:41.860Z,13.53
2019-03-31T07:43:24.687Z,11.67
2019-03-31T07:46:14.936Z,14.60
2019-03-31T07:52:20.620Z,14.77
2019-03-31T07:58:23.904Z,12.37
2019-03-31T08:01:14.293Z,13.47
2019-03-31T08:04:04.599Z,11.50
2019-03-31T08:06:54.905Z,10.97
2019-03-31T08:09:45.244Z,11.90
2019-03-31T08:12:35.568Z,13.07
2019-03-31T08:15:25.910Z,13.30
2019-03-31T08:18:16.226Z,12.47
2019-03-31T08:21:06.472Z,15.13
2019-03-31T08:23:49.021Z,14.03
2019-03-31T08:26:39.438Z,14.87
2019-03-31T08:29:29.775Z,15.40
2019-03-31T08:32:20.133Z,13.27
2019-03-31T08:38:45.523Z,13.37
2019-03-31T08:41:35.791Z,13.30
2019-03-31T08:44:18.615Z,15.43
2019-03-31T08:50:12.690Z,15.20
2019-03-31T08:53:02.970Z,18.67
2019-03-31T08:55:45.619Z,17.57
2019-03-31T08:58:35.917Z,17.50
2019-03-31T09:01:18.719Z,15.70
2019-03-31T09:04:08.996Z,19.33
2019-03-31T09:06:55.553Z,17.27
2019-03-31T09:09:45.842Z,16.80
2019-03-31T09:12:28.395Z,16.77
2019-03-31T09:15:18.680Z,16.13
2019-03-31T09:18:01.215Z,16.17
2019-03-31T09:20:51.543Z,14.70
2019-03-31T09:23:34.624Z,17.00
2019-03-31T09:29:28.284Z,18.70
2019-03-31T09:32:18.581Z,17.40
2019-03-31T09:35:01.324Z,16.97
2019-03-31T09:37:51.621Z,18.53
2019-03-31T09:40:34.337Z,19.20
2019-03-31T09:43:24.635Z,19.63
2019-03-31T09:46:07.941Z,18.10
2019-03-31T09:48:58.250Z,22.37
2019-03-31T09:51:41.037Z,18.30
2019-03-31T09:54:31.314Z,17.77
2019-03-31T10:00:10.046Z,20.27
2019-03-31T10:03:01.200Z,18.63
2019-03-31T10:05:47.676Z,21.77
2019-03-31T10:08:36.696Z,17.03
2019-03-31T10:11:27.092Z,18.83
2019-03-31T10:14:17.397Z,21.63
2019-03-31T10:16:48.866Z,20.03
2019-03-31T10:19:39.144Z,18.43
2019-03-31T10:22:21.933Z,17.40
2019-03-31T10:28:25.522Z,22.10
2019-03-31T10:33:57.216Z,18.40
2019-03-31T10:36:47.514Z,19.50
2019-03-31T10:39:30.364Z,17.40
2019-03-31T10:45:22.826Z,25.17
2019-03-31T10:48:20.266Z,20.90
2019-03-31T10:50:57.791Z,18.37
2019-03-31T10:53:48.536Z,20.00
2019-03-31T10:56:31.636Z,22.67
2019-03-31T10:59:21.912Z,18.83
2019-03-31T11:02:04.361Z,17.93
2019-03-31T11:04:54.617Z,18.07
2019-03-31T11:07:36.882Z,18.93
2019-03-31T11:10:27.149Z,21.83
2019-03-31T11:13:10.356Z,17.47
2019-03-31T11:16:00.628Z,20.27
2019-03-31T11:18:43.888Z,20.97
2019-03-31T11:22:11.819Z,19.63
2019-03-31T11:24:54.964Z,19.93
2019-03-31T11:27:45.314Z,21.27
2019-03-31T11:30:28.242Z,18.63
2019-03-31T11:33:18.482Z,19.90
2019-03-31T11:36:01.318Z,18.73
2019-03-31T11:38:51.590Z,20.47
2019-03-31T11:41:34.022Z,18.57
2019-03-31T11:44:27.495Z,20.30
2019-03-31T11:47:09.067Z,18.40
2019-03-31T11:49:59.324Z,19.53
2019-03-31T11:52:41.966Z,18.47
2019-03-31T11:58:33.779Z,17.40
2019-03-31T12:01:23.180Z,18.97
2019-03-31T12:04:04.980Z,17.77
2019-03-31T12:06:47.904Z,17.43
2019-03-31T12:09:38.402Z,14.50
2019-03-31T12:12:28.800Z,15.60
2019-03-31T12:18:14.240Z,14.63
2019-03-31T12:21:04.508Z,14.53
2019-03-31T12:23:47.554Z,12.40
2019-03-31T12:26:37.890Z,14.33
2019-03-31T12:29:20.800Z,15.07
2019-03-31T12:32:11.274Z,13.40
2019-03-31T12:34:53.624Z,14.30
2019-03-31T12:38:02.672Z,14.07
2019-03-31T12:40:45.747Z,15.73
2019-03-31T12:43:36.017Z,16.37
2019-03-31T12:46:18.460Z,14.70
2019-03-31T12:49:08.764Z,14.30
2019-03-31T12:51:51.392Z,14.40
2019-03-31T12:54:41.698Z,15.33
2019-03-31T12:57:25.049Z,14.90
2019-03-31T13:00:15.343Z,14.65
2019-03-31T13:02:59.020Z,13.62
2019-03-31T13:05:49.254Z,14.23
2019-03-31T13:08:31.932Z,18.27
2019-03-31T13:11:22.802Z,14.87
2019-03-31T13:14:06.309Z,14.50
2019-03-31T13:16:57.147Z,15.00
2019-03-31T13:19:40.803Z,15.40
2019-03-31T13:22:31.636Z,16.80
2019-03-31T13:25:16.143Z,13.25
2019-03-31T13:28:07.007Z,14.10
2019-03-31T13:30:50.621Z,16.23
2019-03-31T13:33:41.561Z,15.03
2019-03-31T13:36:25.073Z,13.10
2019-03-31T13:39:16.161Z,14.18
2019-03-31T13:42:07.083Z,14.35
2019-03-31T13:44:58.044Z,14.55
2019-03-31T13:47:49.003Z,17.00
2019-03-31T13:50:39.939Z,16.20
2019-03-31T13:53:30.890Z,13.78
2019-03-31T13:56:21.752Z,15.95
2019-03-31T13:59:08.901Z,13.25
2019-03-31T14:02:00.221Z,15.25
2019-03-31T14:04:51.491Z,14.58
2019-03-31T14:07:17.526Z,12.20
2019-03-31T14:10:08.658Z,15.72
2019-03-31T14:12:59.575Z,16.30
2019-03-31T14:15:50.508Z,13.50
2019-03-31T14:18:41.469Z,14.93
2019-03-31T14:21:32.301Z,14.38
2019-03-31T14:24:15.414Z,12.82
2019-03-31T14:26:47.971Z,12.13
2019-03-31T14:29:32.391Z,11.25
2019-03-31T14:32:23.295Z,11.45
2019-03-31T14:35:06.784Z,10.25
2019-03-31T14:37:59.482Z,10.35
2019-03-31T14:40:50.412Z,10.30
2019-03-31T14:43:41.291Z,12.70
2019-03-31T14:46:32.208Z,9.48
2019-03-31T14:49:25.764Z,12.05
2019-03-31T14:52:08.190Z,12.82
2019-03-31T14:54:59.041Z,11.75
2019-03-31T14:57:43.141Z,14.80
2019-03-31T15:00:34.079Z,12.15
2019-03-31T15:03:25.002Z,11.90
2019-03-31T15:06:15.895Z,13.68
2019-03-31T15:09:08.820Z,12.10
2019-03-31T15:11:59.951Z,10.70
2019-03-31T15:14:43.985Z,11.80
2019-03-31T15:40:29.847Z,10.48
2019-03-31T15:46:27.747Z,9.85
2019-03-31T15:52:08.798Z,10.55
2019-03-31T15:54:59.358Z,11.53
2019-03-31T15:57:43.031Z,9.45
2019-03-31T16:00:33.915Z,11.10
2019-03-31T16:03:17.600Z,10.10
2019-03-31T16:06:08.507Z,11.48
2019-03-31T16:08:51.541Z,9.15
2019-03-31T16:14:42.969Z,7.87
2019-03-31T16:17:33.281Z,10.23
2019-03-31T16:20:15.417Z,10.20
2019-03-31T16:23:05.725Z,10.82
2019-03-31T16:29:01.777Z,9.43
2019-03-31T16:31:43.871Z,9.07
2019-03-31T16:37:15.145Z,9.83
2019-03-31T16:40:05.057Z,11.80
2019-03-31T16:42:47.106Z,10.77
2019-03-31T16:48:25.060Z,11.03
2019-03-31T16:51:14.911Z,11.83
2019-03-31T16:57:07.969Z,9.10
2019-03-31T16:59:50.239Z,11.07
2019-03-31T17:02:40.068Z,12.33
2019-03-31T17:05:22.282Z,9.13
2019-03-31T17:08:01.745Z,7.27
2019-03-31T17:10:51.481Z,9.00
2019-03-31T17:13:33.730Z,9.37
2019-03-31T17:16:23.447Z,9.93
2019-03-31T17:19:05.630Z,9.73
2019-03-31T17:21:55.429Z,8.47
2019-03-31T17:24:37.378Z,9.67
2019-03-31T17:27:27.267Z,8.70
2019-03-31T17:30:09.636Z,10.83
2019-03-31T17:32:59.348Z,8.70
2019-03-31T17:35:42.343Z,9.77
2019-03-31T17:38:32.095Z,7.70
2019-03-31T17:41:14.410Z,8.37
2019-03-31T17:44:04.142Z,10.90
2019-03-31T17:46:46.694Z,8.03
2019-03-31T17:49:36.428Z,8.00
2019-03-31T17:52:19.262Z,9.67
2019-03-31T17:55:08.996Z,11.33
2019-03-31T17:57:51.736Z,9.03
2019-03-31T18:00:41.569Z,8.13
2019-03-31T18:03:27.872Z,12.83
2019-03-31T18:06:17.702Z,9.33
2019-03-31T18:09:01.340Z,11.13
2019-03-31T18:11:51.084Z,9.90
2019-03-31T18:14:33.100Z,11.17
2019-03-31T18:17:22.892Z,9.20
2019-03-31T18:20:08.832Z,9.47
2019-03-31T18:22:58.663Z,9.30
2019-03-31T18:25:48.378Z,9.80
2019-03-31T18:28:30.658Z,10.13
2019-03-31T18:31:20.372Z,11.10
2019-03-31T18:34:02.806Z,9.73
2019-03-31T18:36:52.498Z,10.77
2019-03-31T18:39:34.627Z,9.17
2019-03-31T18:42:24.382Z,9.37
2019-03-31T18:45:33.292Z,9.33
2019-03-31T18:48:23.054Z,11.57
2019-03-31T18:51:12.748Z,10.37
2019-03-31T18:57:24.982Z,8.73
2019-03-31T19:00:33.648Z,7.83
2019-03-31T19:03:39.226Z,8.77
2019-03-31T19:06:33.747Z,8.40
2019-03-31T19:09:42.380Z,10.30
2019-03-31T19:12:52.013Z,8.50
2019-03-31T19:16:00.642Z,6.97
2019-03-31T19:19:09.284Z,8.27
2019-03-31T19:22:08.455Z,9.13
2019-03-31T19:25:17.065Z,11.70
2019-03-31T19:31:08.951Z,7.60
2019-03-31T19:34:10.180Z,8.30
2019-03-31T19:37:18.769Z,8.23
2019-03-31T19:40:27.554Z,7.97
2019-03-31T19:43:36.193Z,8.87
2019-03-31T19:46:44.960Z,9.27
2019-03-31T19:50:05.359Z,8.00
2019-03-31T19:52:58.695Z,11.20
2019-03-31T19:56:08.099Z,9.93
2019-03-31T19:59:10.747Z,9.10
2019-03-31T20:02:19.293Z,11.17
2019-03-31T20:08:32.759Z,9.20
2019-03-31T20:11:34.481Z,14.33
2019-03-31T20:14:29.845Z,11.27
2019-03-31T20:17:34.869Z,11.13
2019-03-31T20:20:43.554Z,12.13
2019-03-31T20:23:52.265Z,10.00
2019-03-31T20:27:00.859Z,9.83
2019-03-31T20:29:57.949Z,14.27
2019-03-31T20:33:01.327Z,11.33
2019-03-31T20:36:05.243Z,14.90
2019-03-31T20:39:14.202Z,13.30
2019-03-31T20:42:03.663Z,12.03
2019-03-31T20:44:45.695Z,11.53
2019-03-31T20:47:35.443Z,12.37
2019-03-31T20:50:19.131Z,12.03
2019-03-31T20:53:08.854Z,12.47
2019-03-31T20:55:51.461Z,10.53
2019-03-31T20:58:41.187Z,11.20
2019-03-31T21:01:23.205Z,12.33
2019-03-31T21:04:12.894Z,14.23
2019-03-31T21:06:55.047Z,13.77
2019-03-31T21:09:45.508Z,12.43
2019-03-31T21:12:29.245Z,13.47
2019-03-31T21:15:18.975Z,12.87
2019-03-31T21:18:01.643Z,12.87
2019-03-31T21:20:51.345Z,12.43
2019-03-31T21:23:34.173Z,13.20
2019-03-31T21:26:23.907Z,12.83
2019-03-31T21:29:06.235Z,12.57
2019-03-31T21:31:55.982Z,15.17
2019-03-31T21:34:45.719Z,12.67
2019-03-31T21:37:27.627Z,14.67
2019-03-31T21:40:17.499Z,14.83
2019-03-31T21:43:18.236Z,14.10
2019-03-31T21:46:00.803Z,12.73
2019-03-31T21:48:50.564Z,12.40
2019-03-31T21:51:32.673Z,12.27
2019-03-31T21:54:22.487Z,12.90
2019-03-31T21:57:12.299Z,12.97
2019-03-31T22:00:02.095Z,13.90
2019-03-31T22:02:52.026Z,13.20
2019-03-31T22:05:41.773Z,13.10
2019-03-31T22:08:31.572Z,12.40
2019-03-31T22:11:21.268Z,13.20
2019-03-31T22:17:26.127Z,13.67
2019-03-31T22:20:08.658Z,11.83
2019-03-31T22:23:10.076Z,13.07
2019-03-31T22:25:52.273Z,13.67
2019-03-31T22:28:42.319Z,15.03
2019-03-31T22:31:24.432Z,12.83
2019-03-31T22:34:14.236Z,13.73
2019-03-31T22:36:45.023Z,14.77
2019-03-31T22:42:23.336Z,14.33
2019-03-31T22:45:06.372Z,12.73
2019-03-31T22:47:56.268Z,14.37
2019-03-31T22:50:46.010Z,15.40
2019-03-31T22:53:35.912Z,14.43
2019-03-31T22:56:25.688Z,12.90
2019-03-31T22:59:15.466Z,14.90
2019-03-31T23:04:58.553Z,13.20
2019-03-31T23:07:48.240Z,12.53
2019-03-31T23:10:37.948Z,14.03
2019-03-31T23:13:27.658Z,16.03
2019-03-31T23:16:13.856Z,12.63
2019-03-31T23:19:03.562Z,14.53
2019-03-31T23:21:50.429Z,13.90
2019-03-31T23:24:40.100Z,12.77
2019-03-31T23:27:22.245Z,13.10
2019-03-31T23:30:12.159Z,14.43
2019-03-31T23:32:56.456Z,13.97
2019-03-31T23:35:47.194Z,16.53
2019-03-31T23:38:29.515Z,14.67
2019-03-31T23:41:19.237Z,13.50
2019-03-31T23:44:02.066Z,14.30
2019-03-31T23:46:51.797Z,14.60
2019-03-31T23:49:33.981Z,16.37
2019-03-31T23:55:18.187Z,15.90
2019-03-31T23:58:07.993Z,14.87
